createdAt,value
2019-02-20T00:00:24.518Z,23.63
2019-02-20T00:02:53.860Z,26.37
2019-02-20T00:05:22.906Z,28.47
2019-02-20T00:07:52.190Z,19.77
2019-02-20T00:10:21.247Z,34.80
2019-02-20T00:12:50.625Z,23.83
2019-02-20T00:15:19.674Z,24.07
2019-02-20T00:17:48.753Z,21.20
2019-02-20T00:20:17.813Z,20.00
2019-02-20T00:22:46.827Z,28.87
2019-02-20T00:25:15.884Z,26.27
2019-02-20T00:27:44.826Z,31.67
2019-02-20T00:30:13.979Z,34.73
2019-02-20T00:32:43.052Z,26.70
2019-02-20T00:35:12.152Z,30.57
2019-02-20T00:37:41.093Z,32.00
2019-02-20T00:40:10.118Z,34.60
2019-02-20T00:42:39.211Z,64.50
2019-02-20T00:45:28.394Z,41.53
2019-02-20T00:48:14.988Z,49.47
2019-02-20T00:50:44.739Z,36.60
2019-02-20T00:53:18.906Z,32.47
2019-02-20T00:55:48.034Z,30.03
2019-02-20T00:58:16.973Z,33.03
2019-02-20T01:00:46.055Z,34.13
2019-02-20T01:03:14.926Z,32.27
2019-02-20T01:05:43.942Z,24.40
2019-02-20T01:08:13.009Z,31.00
2019-02-20T01:10:42.377Z,32.20
2019-02-20T01:13:11.466Z,31.43
2019-02-20T01:15:40.475Z,33.03
2019-02-20T01:18:09.506Z,38.53
2019-02-20T01:20:38.565Z,31.73
2019-02-20T01:23:07.799Z,29.67
2019-02-20T01:25:36.854Z,36.27
2019-02-20T01:28:06.109Z,24.80
2019-02-20T01:30:35.123Z,28.17
2019-02-20T01:33:04.099Z,33.00
2019-02-20T01:35:33.033Z,25.70
2019-02-20T01:38:02.009Z,30.67
2019-02-20T01:40:31.094Z,22.70
2019-02-20T01:43:00.118Z,30.00
2019-02-20T01:45:29.128Z,40.80
2019-02-20T01:47:58.896Z,21.43
2019-02-20T01:50:27.829Z,30.37
2019-02-20T01:52:56.844Z,31.00
2019-02-20T01:55:25.897Z,29.60
2019-02-20T01:57:54.970Z,30.97
2019-02-20T02:00:23.982Z,31.07
2019-02-20T02:02:53.002Z,35.40
2019-02-20T02:05:22.013Z,27.70
2019-02-20T02:07:51.030Z,27.73
2019-02-20T02:10:20.396Z,28.13
2019-02-20T02:12:49.454Z,25.17
2019-02-20T02:15:20.787Z,34.30
2019-02-20T02:17:49.945Z,37.40
2019-02-20T02:20:18.965Z,32.30
2019-02-20T02:22:47.947Z,34.97
2019-02-20T02:25:16.963Z,28.83
2019-02-20T02:27:46.013Z,25.20
2019-02-20T02:30:15.227Z,26.97
2019-02-20T02:32:44.307Z,28.43
2019-02-20T02:35:13.325Z,30.03
2019-02-20T02:37:42.335Z,30.37
2019-02-20T02:40:11.397Z,40.17
2019-02-20T02:42:40.410Z,26.90
2019-02-20T02:45:09.424Z,29.53
2019-02-20T02:47:38.782Z,32.97
2019-02-20T02:50:08.188Z,25.83
2019-02-20T02:52:37.202Z,28.00
2019-02-20T02:55:06.310Z,33.60
2019-02-20T02:57:35.353Z,23.73
2019-02-20T03:00:04.827Z,38.07
2019-02-20T03:02:33.888Z,35.70
2019-02-20T03:05:02.942Z,31.13
2019-02-20T03:07:31.968Z,31.20
2019-02-20T03:10:00.967Z,27.80
2019-02-20T03:12:30.202Z,46.57
2019-02-20T03:14:59.217Z,28.90
2019-02-20T03:17:28.239Z,30.43
2019-02-20T03:19:57.636Z,31.27
2019-02-20T03:22:26.684Z,38.70
2019-02-20T03:24:55.739Z,34.57
2019-02-20T03:27:24.811Z,31.90
2019-02-20T03:29:53.824Z,27.63
2019-02-20T03:32:22.758Z,31.70
2019-02-20T03:34:51.810Z,23.80
2019-02-20T03:37:20.836Z,25.43
2019-02-20T03:39:50.111Z,40.30
2019-02-20T03:42:19.189Z,29.50
2019-02-20T03:44:48.189Z,25.07
2019-02-20T03:47:17.244Z,26.47
2019-02-20T03:49:46.265Z,21.10
2019-02-20T03:52:15.322Z,25.63
2019-02-20T03:54:44.793Z,27.00
2019-02-20T03:57:13.789Z,32.70
2019-02-20T03:59:42.896Z,21.33
2019-02-20T04:02:11.910Z,24.50
2019-02-20T04:04:40.966Z,27.47
2019-02-20T04:07:10.279Z,23.27
2019-02-20T04:09:39.334Z,22.80
2019-02-20T04:12:08.409Z,32.40
2019-02-20T04:14:37.489Z,31.10
2019-02-20T04:17:06.493Z,25.57
2019-02-20T04:19:35.511Z,23.00
2019-02-20T04:22:04.786Z,25.03
2019-02-20T04:24:33.758Z,26.80
2019-02-20T04:27:02.700Z,28.23
2019-02-20T04:29:31.756Z,35.63
2019-02-20T04:32:00.773Z,29.73
2019-02-20T04:34:29.773Z,21.23
2019-02-20T04:36:58.730Z,31.83
2019-02-20T04:39:27.746Z,26.27
2019-02-20T04:41:57.101Z,22.77
2019-02-20T04:44:26.116Z,21.87
2019-02-20T04:46:55.490Z,28.10
2019-02-20T04:49:24.498Z,23.13
2019-02-20T04:51:53.893Z,23.93
2019-02-20T04:54:22.950Z,27.60
2019-02-20T04:56:51.974Z,30.17
2019-02-20T04:59:20.946Z,34.57
2019-02-20T05:01:49.961Z,29.93
2019-02-20T05:04:19.001Z,36.43
2019-02-20T05:06:48.015Z,27.27
2019-02-20T05:09:17.368Z,26.77
2019-02-20T05:11:46.646Z,37.40
2019-02-20T05:14:15.708Z,34.17
2019-02-20T05:16:45.056Z,32.80
2019-02-20T05:19:14.110Z,27.53
2019-02-20T05:21:43.244Z,31.30
2019-02-20T05:24:12.273Z,33.50
2019-02-20T05:26:41.266Z,31.20
2019-02-20T05:29:10.335Z,34.80
2019-02-20T05:31:39.354Z,34.83
2019-02-20T05:34:08.410Z,28.47
2019-02-20T05:36:37.296Z,31.83
2019-02-20T05:39:07.375Z,25.17
2019-02-20T05:41:36.392Z,38.83
2019-02-20T05:44:05.461Z,37.90
2019-02-20T05:46:34.476Z,43.27
2019-02-20T05:49:03.491Z,25.43
2019-02-20T05:51:32.738Z,33.10
2019-02-20T05:54:01.744Z,30.03
2019-02-20T05:56:30.766Z,28.90
2019-02-20T05:58:59.767Z,31.47
2019-02-20T06:01:28.784Z,36.07
2019-02-20T06:03:57.844Z,36.57
2019-02-20T06:06:26.839Z,35.50
2019-02-20T06:08:55.767Z,29.80
2019-02-20T06:11:24.746Z,40.40
2019-02-20T06:13:53.837Z,33.60
2019-02-20T06:16:23.130Z,38.67
2019-02-20T06:18:52.216Z,38.50
2019-02-20T06:21:21.278Z,34.77
2019-02-20T06:23:50.295Z,33.90
2019-02-20T06:26:19.639Z,44.33
2019-02-20T06:28:49.052Z,51.37
2019-02-20T06:31:18.090Z,43.60
2019-02-20T06:33:47.102Z,45.53
2019-02-20T06:36:16.230Z,46.30
2019-02-20T06:38:45.270Z,38.10
2019-02-20T06:41:14.334Z,48.57
2019-02-20T06:43:43.356Z,34.73
2019-02-20T06:46:12.387Z,42.83
2019-02-20T06:48:41.445Z,43.60
2019-02-20T06:51:10.453Z,39.80
2019-02-20T06:53:39.991Z,37.77
2019-02-20T06:56:09.000Z,39.00
2019-02-20T06:58:38.052Z,46.63
2019-02-20T07:01:07.070Z,55.43
2019-02-20T07:03:36.122Z,34.67
2019-02-20T07:06:50.033Z,41.23
2019-02-20T07:10:06.428Z,42.70
2019-02-20T07:13:00.528Z,48.23
2019-02-20T07:15:53.540Z,35.60
2019-02-20T07:18:54.354Z,61.47
2019-02-20T07:22:09.621Z,39.63
2019-02-20T07:24:53.059Z,42.43
2019-02-20T07:27:43.571Z,38.97
2019-02-20T07:30:12.582Z,39.57
2019-02-20T07:32:41.653Z,53.07
2019-02-20T07:35:11.518Z,38.93
2019-02-20T07:37:40.889Z,36.80
2019-02-20T07:40:11.898Z,39.60
2019-02-20T07:42:40.966Z,34.37
2019-02-20T07:45:14.766Z,40.87
2019-02-20T07:47:44.157Z,41.23
2019-02-20T07:50:16.025Z,42.57
2019-02-20T07:52:45.354Z,39.63
2019-02-20T07:55:14.446Z,36.30
2019-02-20T07:57:43.817Z,41.47
2019-02-20T08:00:14.545Z,50.37
2019-02-20T08:02:43.557Z,40.80
2019-02-20T08:05:12.297Z,44.50
2019-02-20T08:07:41.313Z,51.43
2019-02-20T08:10:11.618Z,39.90
2019-02-20T08:12:40.631Z,46.40
2019-02-20T08:15:11.325Z,42.43
2019-02-20T08:17:40.401Z,39.83
2019-02-20T08:20:10.746Z,38.20
2019-02-20T08:22:39.803Z,40.60
2019-02-20T08:25:09.460Z,41.30
2019-02-20T08:27:38.506Z,41.17
2019-02-20T08:30:13.685Z,46.90
2019-02-20T08:32:42.713Z,46.70
2019-02-20T08:35:12.040Z,39.93
2019-02-20T08:37:41.126Z,44.43
2019-02-20T08:40:12.728Z,45.67
2019-02-20T08:42:41.749Z,39.60
2019-02-20T08:45:11.221Z,38.23
2019-02-20T08:47:40.286Z,42.40
2019-02-20T08:50:10.374Z,40.63
2019-02-20T08:52:39.390Z,49.37
2019-02-20T08:55:08.764Z,40.10
2019-02-20T08:57:37.693Z,39.20
2019-02-20T09:00:08.352Z,48.57
2019-02-20T09:02:37.410Z,36.13
2019-02-20T09:05:07.223Z,46.90
2019-02-20T09:07:36.282Z,34.90
2019-02-20T09:10:05.947Z,40.17
2019-02-20T09:12:34.995Z,45.57
2019-02-20T09:15:04.082Z,45.90
2019-02-20T09:17:33.645Z,38.07
2019-02-20T09:20:02.746Z,33.30
2019-02-20T09:22:31.763Z,38.23
2019-02-20T09:25:00.836Z,51.27
2019-02-20T09:27:29.936Z,35.83
2019-02-20T09:29:58.947Z,37.53
2019-02-20T09:32:27.982Z,56.83
2019-02-20T09:34:57.036Z,48.87
2019-02-20T09:37:25.982Z,36.47
2019-02-20T09:39:55.398Z,31.97
2019-02-20T09:42:24.410Z,34.40
2019-02-20T09:44:53.353Z,39.27
2019-02-20T09:47:22.777Z,41.73
2019-02-20T09:49:51.798Z,31.13
2019-02-20T09:52:20.865Z,33.00
2019-02-20T09:54:50.325Z,29.93
2019-02-20T09:57:19.415Z,42.80
2019-02-20T09:59:48.447Z,38.10
2019-02-20T10:02:17.496Z,43.43
2019-02-20T10:04:47.235Z,34.07
2019-02-20T10:07:16.265Z,31.37
2019-02-20T10:09:45.622Z,31.50
2019-02-20T10:12:14.577Z,37.10
2019-02-20T10:14:43.639Z,31.77
2019-02-20T10:17:12.654Z,43.23
2019-02-20T10:19:41.993Z,30.60
2019-02-20T10:22:11.097Z,37.47
2019-02-20T10:24:40.140Z,37.10
2019-02-20T10:27:09.208Z,30.33
2019-02-20T10:29:38.325Z,36.60
2019-02-20T10:32:07.292Z,33.57
2019-02-20T10:34:36.241Z,36.63
2019-02-20T10:37:05.300Z,46.10
2019-02-20T10:39:34.355Z,36.20
2019-02-20T10:42:03.378Z,31.47
2019-02-20T10:44:32.743Z,32.70
2019-02-20T10:47:01.749Z,40.47
2019-02-20T10:49:31.181Z,29.90
2019-02-20T10:52:00.491Z,43.30
2019-02-20T10:54:29.433Z,44.50
2019-02-20T10:56:58.874Z,42.90
2019-02-20T10:59:27.902Z,38.20
2019-02-20T11:01:56.964Z,43.17
2019-02-20T11:04:25.978Z,36.87
2019-02-20T11:06:54.951Z,33.80
2019-02-20T11:09:24.238Z,36.47
2019-02-20T11:11:54.511Z,37.27
2019-02-20T11:14:23.594Z,37.13
2019-02-20T11:16:52.946Z,43.27
2019-02-20T11:19:22.343Z,41.37
2019-02-20T11:21:51.449Z,31.70
2019-02-20T11:24:20.466Z,41.90
2019-02-20T11:26:54.787Z,35.23
2019-02-20T11:29:20.449Z,38.90
2019-02-20T11:31:49.458Z,38.90
2019-02-20T11:34:19.832Z,43.13
2019-02-20T11:36:49.535Z,35.90
2019-02-20T11:39:18.581Z,35.30
2019-02-20T11:41:47.669Z,35.70
2019-02-20T11:44:20.969Z,36.17
2019-02-20T11:46:47.394Z,39.17
2019-02-20T11:49:16.674Z,39.73
2019-02-20T11:51:45.746Z,39.07
2019-02-20T11:54:14.793Z,32.17
2019-02-20T11:56:43.842Z,38.57
2019-02-20T11:59:12.860Z,42.77
2019-02-20T12:01:41.921Z,38.73
2019-02-20T12:04:11.254Z,40.43
2019-02-20T12:06:40.275Z,32.53
2019-02-20T12:09:10.518Z,45.53
2019-02-20T12:11:39.593Z,37.03
2019-02-20T12:14:08.605Z,38.67
2019-02-20T12:16:37.674Z,34.93
2019-02-20T12:19:06.691Z,33.57
2019-02-20T12:21:35.991Z,35.03
2019-02-20T12:24:06.224Z,45.13
2019-02-20T12:26:35.504Z,35.90
2019-02-20T12:29:04.500Z,38.47
2019-02-20T12:31:33.609Z,31.93
2019-02-20T12:34:02.663Z,39.30
2019-02-20T12:36:31.638Z,36.70
2019-02-20T12:39:00.955Z,43.73
2019-02-20T12:41:30.334Z,34.77
2019-02-20T12:43:59.434Z,33.90
2019-02-20T12:46:28.450Z,45.30
2019-02-20T12:48:57.525Z,42.20
2019-02-20T12:51:26.476Z,36.77
2019-02-20T12:53:55.495Z,38.43
2019-02-20T12:56:24.559Z,35.07
2019-02-20T12:58:53.946Z,37.17
2019-02-20T13:01:22.953Z,38.20
2019-02-20T13:03:51.959Z,38.27
2019-02-20T13:06:20.969Z,43.10
2019-02-20T13:08:50.056Z,40.47
2019-02-20T13:11:19.081Z,41.07
2019-02-20T13:13:49.105Z,41.77
2019-02-20T13:16:18.276Z,43.60
2019-02-20T13:18:47.338Z,52.20
2019-02-20T13:21:16.431Z,43.20
2019-02-20T13:23:45.568Z,48.10
2019-02-20T13:26:14.539Z,46.33
2019-02-20T13:28:43.545Z,52.13
2019-02-20T13:31:12.597Z,43.10
2019-02-20T13:33:41.654Z,47.97
2019-02-20T13:36:10.934Z,48.30
2019-02-20T13:38:39.945Z,44.60
2019-02-20T13:41:09.412Z,45.10
2019-02-20T13:43:38.466Z,38.30
2019-02-20T13:46:07.525Z,44.57
2019-02-20T13:48:36.542Z,41.20
2019-02-20T13:51:05.563Z,40.27
2019-02-20T13:53:34.642Z,48.20
2019-02-20T13:56:03.691Z,41.30
2019-02-20T13:58:32.753Z,43.20
2019-02-20T14:01:01.762Z,43.87
2019-02-20T14:03:30.839Z,48.30
2019-02-20T14:05:59.853Z,38.53
2019-02-20T14:08:28.907Z,36.53
2019-02-20T14:10:57.995Z,55.63
2019-02-20T14:13:27.489Z,39.83
2019-02-20T14:15:56.444Z,38.80
2019-02-20T14:18:25.458Z,33.87
2019-02-20T14:20:54.525Z,41.73
2019-02-20T14:23:23.635Z,35.30
2019-02-20T14:25:52.710Z,50.67
2019-02-20T14:28:21.758Z,45.03
2019-02-20T14:30:50.802Z,33.90
2019-02-20T14:33:19.870Z,45.73
2019-02-20T14:35:48.950Z,36.07
2019-02-20T14:38:17.974Z,34.83
2019-02-20T14:40:47.186Z,34.57
2019-02-20T14:43:16.257Z,37.63
2019-02-20T14:45:46.212Z,55.43
2019-02-20T14:48:15.210Z,37.00
2019-02-20T14:50:44.296Z,36.73
2019-02-20T14:53:13.317Z,37.20
2019-02-20T14:55:42.333Z,48.33
2019-02-20T14:58:11.393Z,35.13
2019-02-20T15:00:40.782Z,42.03
2019-02-20T15:03:10.003Z,36.80
2019-02-20T15:05:39.266Z,41.27
2019-02-20T15:08:08.287Z,34.63
2019-02-20T15:10:37.341Z,40.90
2019-02-20T15:13:06.352Z,36.60
2019-02-20T15:15:35.423Z,39.87
2019-02-20T15:18:04.701Z,35.67
2019-02-20T15:20:35.507Z,38.13
2019-02-20T15:23:04.510Z,35.80
2019-02-20T15:25:33.560Z,40.67
2019-02-20T15:28:02.607Z,35.67
2019-02-20T15:30:33.237Z,40.40
2019-02-20T15:33:02.630Z,41.50
2019-02-20T15:35:31.645Z,38.63
2019-02-20T15:38:00.707Z,45.20
2019-02-20T15:40:29.724Z,37.50
2019-02-20T15:42:58.738Z,41.37
2019-02-20T15:45:27.828Z,45.43
2019-02-20T15:47:57.275Z,43.93
2019-02-20T15:50:26.297Z,43.10
2019-02-20T15:52:55.338Z,40.53
2019-02-20T15:55:24.374Z,44.23
2019-02-20T15:57:53.464Z,46.50
2019-02-20T16:00:24.118Z,46.60
2019-02-20T16:02:53.378Z,53.77
2019-02-20T16:05:22.438Z,51.40
2019-02-20T16:07:53.449Z,48.00
2019-02-20T16:10:22.620Z,58.87
2019-02-20T16:12:51.632Z,54.17
2019-02-20T16:15:20.646Z,62.00
2019-02-20T16:17:50.021Z,60.67
2019-02-20T16:20:19.087Z,58.23
2019-02-20T16:22:48.154Z,50.93
2019-02-20T16:25:17.210Z,50.83
2019-02-20T16:27:47.882Z,52.53
2019-02-20T16:30:17.032Z,49.73
2019-02-20T16:32:46.396Z,62.23
2019-02-20T16:35:15.548Z,50.70
2019-02-20T16:37:44.946Z,47.23
2019-02-20T16:40:14.140Z,52.10
2019-02-20T16:42:43.200Z,47.97
2019-02-20T16:45:31.384Z,49.17
2019-02-20T16:48:00.429Z,48.10
2019-02-20T16:50:29.489Z,55.13
2019-02-20T16:52:58.497Z,49.50
2019-02-20T16:55:27.586Z,52.00
2019-02-20T16:57:57.256Z,49.40
2019-02-20T17:00:26.495Z,48.00
2019-02-20T17:02:55.718Z,47.57
2019-02-20T17:05:24.895Z,46.13
2019-02-20T17:07:53.933Z,44.60
2019-02-20T17:10:22.945Z,46.43
2019-02-20T17:12:52.016Z,49.60
2019-02-20T17:15:21.021Z,53.13
2019-02-20T17:17:50.754Z,46.77
2019-02-20T17:20:19.964Z,45.73
2019-02-20T17:22:48.993Z,52.33
2019-02-20T17:25:19.443Z,45.83
2019-02-20T17:27:48.481Z,45.37
2019-02-20T17:30:17.793Z,46.83
2019-02-20T17:32:47.357Z,48.33
2019-02-20T17:35:17.294Z,45.93
2019-02-20T17:37:46.451Z,46.73
2019-02-20T17:40:16.660Z,45.53
2019-02-20T17:42:45.718Z,49.20
2019-02-20T17:45:15.853Z,47.93
2019-02-20T17:47:45.254Z,51.70
2019-02-20T17:50:15.246Z,64.00
2019-02-20T17:52:44.267Z,47.13
2019-02-20T17:55:13.328Z,45.17
2019-02-20T17:57:42.390Z,47.00
2019-02-20T18:00:12.530Z,45.93
2019-02-20T18:02:41.599Z,45.53
2019-02-20T18:05:10.795Z,44.73
2019-02-20T18:07:48.376Z,43.80
2019-02-20T18:10:10.735Z,45.80
2019-02-20T18:12:39.867Z,44.00
2019-02-20T18:15:09.041Z,51.70
2019-02-20T18:17:38.472Z,49.40
2019-02-20T18:20:07.804Z,47.00
2019-02-20T18:22:37.150Z,43.97
2019-02-20T18:25:06.447Z,42.57
2019-02-20T18:27:35.511Z,46.33
2019-02-20T18:30:04.658Z,43.47
2019-02-20T18:32:33.758Z,41.90
2019-02-20T18:35:03.304Z,41.57
2019-02-20T18:37:32.360Z,46.37
2019-02-20T18:40:01.374Z,43.93
2019-02-20T18:42:30.486Z,44.40
2019-02-20T18:44:59.513Z,46.50
2019-02-20T18:47:28.593Z,40.83
2019-02-20T18:49:57.610Z,40.90
2019-02-20T18:52:26.999Z,47.10
2019-02-20T18:55:05.358Z,42.87
2019-02-20T18:57:26.802Z,46.77
2019-02-20T18:59:55.879Z,43.57
2019-02-20T19:02:24.950Z,41.83
2019-02-20T19:04:54.005Z,36.07
2019-02-20T19:07:23.078Z,36.27
2019-02-20T19:09:52.163Z,38.53
2019-02-20T19:12:54.246Z,43.30
2019-02-20T19:15:37.974Z,36.90
2019-02-20T19:18:25.323Z,34.70
2019-02-20T19:21:03.300Z,35.17
2019-02-20T19:24:18.799Z,35.57
2019-02-20T19:27:24.605Z,34.70
2019-02-20T19:30:31.349Z,35.17
2019-02-20T19:33:31.684Z,37.73
2019-02-20T19:36:34.445Z,38.67
2019-02-20T19:39:40.280Z,37.20
2019-02-20T19:43:00.128Z,34.43
2019-02-20T19:46:03.420Z,33.40
2019-02-20T19:49:22.358Z,36.57
2019-02-20T19:52:46.797Z,36.53
2019-02-20T19:56:07.580Z,34.03
2019-02-20T19:59:23.424Z,31.87
2019-02-20T20:02:27.790Z,33.10
2019-02-20T20:05:52.273Z,39.03
2019-02-20T20:09:01.899Z,35.73
2019-02-20T20:11:44.634Z,31.70
2019-02-20T20:15:12.561Z,30.60
2019-02-20T20:18:44.049Z,32.10
2019-02-20T20:21:30.452Z,29.43
2019-02-20T20:24:51.030Z,28.23
2019-02-20T20:27:50.974Z,41.03
2019-02-20T20:30:52.102Z,34.20
2019-02-20T20:33:35.333Z,35.83
2019-02-20T20:36:41.531Z,40.07
2019-02-20T20:39:41.751Z,29.87
2019-02-20T20:42:51.945Z,29.47
2019-02-20T20:46:14.406Z,31.53
2019-02-20T20:49:32.762Z,39.83
2019-02-20T20:52:41.912Z,29.83
2019-02-20T20:56:01.191Z,29.33
2019-02-20T20:58:42.245Z,34.13
2019-02-20T21:01:50.552Z,34.53
2019-02-20T21:04:58.251Z,29.23
2019-02-20T21:07:36.909Z,32.77
2019-02-20T21:10:49.058Z,32.93
2019-02-20T21:14:26.402Z,33.80
2019-02-20T21:17:40.967Z,30.30
2019-02-20T21:20:34.658Z,28.00
2019-02-20T21:23:39.385Z,36.63
2019-02-20T21:26:35.414Z,30.27
2019-02-20T21:29:28.168Z,39.70
2019-02-20T21:32:26.036Z,33.70
2019-02-20T21:35:41.391Z,31.97
2019-02-20T21:38:43.062Z,37.73
2019-02-20T21:41:39.495Z,33.17
2019-02-20T21:44:47.374Z,29.20
2019-02-20T21:48:07.257Z,30.53
2019-02-20T21:51:11.449Z,37.00
2019-02-20T21:54:27.800Z,40.93
2019-02-20T21:57:06.646Z,35.93
2019-02-20T22:00:22.921Z,29.43
2019-02-20T22:03:45.015Z,35.90
2019-02-20T22:06:24.786Z,34.70
2019-02-20T22:09:16.144Z,33.90
2019-02-20T22:12:03.038Z,29.93
2019-02-20T22:14:54.172Z,38.73
2019-02-20T22:18:03.578Z,33.07
2019-02-20T22:21:07.128Z,34.30
2019-02-20T22:23:59.479Z,29.47
2019-02-20T22:27:20.377Z,37.03
2019-02-20T22:30:43.074Z,34.10
2019-02-20T22:34:02.314Z,35.03
2019-02-20T22:37:21.315Z,37.27
2019-02-20T22:40:23.212Z,33.30
2019-02-20T22:43:08.394Z,37.63
2019-02-20T22:45:53.258Z,33.70
2019-02-20T22:48:57.139Z,29.90
2019-02-20T22:51:58.142Z,39.77
2019-02-20T22:55:10.329Z,29.60
2019-02-20T22:58:03.946Z,31.33
2019-02-20T23:01:05.174Z,31.67
2019-02-20T23:04:10.646Z,37.50
2019-02-20T23:07:20.985Z,31.33
2019-02-20T23:10:22.866Z,36.17
2019-02-20T23:13:31.729Z,31.50
2019-02-20T23:16:00.750Z,30.47
2019-02-20T23:18:29.702Z,34.77
2019-02-20T23:20:58.762Z,36.87
2019-02-20T23:23:27.829Z,39.00
2019-02-20T23:25:56.927Z,29.93
2019-02-20T23:28:25.968Z,32.07
2019-02-20T23:30:55.023Z,41.70
2019-02-20T23:33:23.987Z,36.40
2019-02-20T23:35:52.967Z,29.03
2019-02-20T23:38:22.001Z,35.87
2019-02-20T23:40:50.993Z,32.13
2019-02-20T23:43:19.925Z,26.93
2019-02-20T23:45:48.979Z,25.13
2019-02-20T23:48:18.066Z,27.57
2019-02-20T23:50:47.064Z,29.13
2019-02-20T23:53:18.593Z,29.40
2019-02-20T23:55:46.858Z,28.17
2019-02-20T23:58:15.797Z,32.83
